createdAt,value
2018-04-08T00:01:14.198Z,81.30
2018-04-08T00:03:41.945Z,81.20
2018-04-08T00:06:10.485Z,81.80
2018-04-08T00:08:38.214Z,81.70
2018-04-08T00:11:06.039Z,81.10
2018-04-08T00:13:33.835Z,81.70
2018-04-08T00:16:01.598Z,82.40
2018-04-08T00:18:29.507Z,83.40
2018-04-08T00:20:57.280Z,83.50
2018-04-08T00:23:25.227Z,83.70
2018-04-08T00:25:53.137Z,83.60
2018-04-08T00:28:21.057Z,83.80
2018-04-08T00:30:48.854Z,84.10
2018-04-08T00:33:16.602Z,84.30
2018-04-08T00:35:44.531Z,84.50
2018-04-08T00:38:12.400Z,85.10
2018-04-08T00:40:40.203Z,87.00
2018-04-08T00:43:08.348Z,87.70
2018-04-08T00:45:36.229Z,89.00
2018-04-08T00:48:04.176Z,90.00
2018-04-08T00:50:32.038Z,90.30
2018-04-08T00:53:01.741Z,90.70
2018-04-08T00:55:31.930Z,90.70
2018-04-08T00:57:59.862Z,91.10
2018-04-08T01:00:27.825Z,90.80
2018-04-08T01:02:55.738Z,91.00
2018-04-08T01:05:23.753Z,91.00
2018-04-08T01:07:51.573Z,91.30
2018-04-08T01:10:19.544Z,91.50
2018-04-08T01:12:48.425Z,91.60
2018-04-08T01:15:16.261Z,92.30
2018-04-08T01:17:44.093Z,92.50
2018-04-08T01:20:12.875Z,92.80
2018-04-08T01:22:40.781Z,92.80
2018-04-08T01:25:08.587Z,93.60
2018-04-08T01:27:36.344Z,93.80
2018-04-08T01:30:04.718Z,94.10
2018-04-08T01:32:32.582Z,94.30
2018-04-08T01:35:00.440Z,94.30
2018-04-08T01:37:28.448Z,94.20
2018-04-08T01:39:56.360Z,94.90
2018-04-08T01:42:24.252Z,94.90
2018-04-08T01:44:52.293Z,95.20
2018-04-08T01:47:20.901Z,94.90
2018-04-08T01:49:48.782Z,94.90
2018-04-08T01:52:16.730Z,95.00
2018-04-08T01:54:45.714Z,94.80
2018-04-08T01:57:13.542Z,95.40
2018-04-08T01:59:42.237Z,95.50
2018-04-08T02:02:10.789Z,95.80
2018-04-08T02:04:39.335Z,95.90
2018-04-08T02:07:07.188Z,95.90
2018-04-08T02:09:34.966Z,96.30
2018-04-08T02:12:02.705Z,96.50
2018-04-08T02:14:31.258Z,96.90
2018-04-08T02:16:59.103Z,96.80
2018-04-08T02:19:26.919Z,97.10
2018-04-08T02:21:54.813Z,97.50
2018-04-08T02:24:22.714Z,97.70
2018-04-08T02:26:50.513Z,97.90
2018-04-08T02:29:19.227Z,98.10
2018-04-08T02:31:47.774Z,98.10
2018-04-08T02:34:16.521Z,98.50
2018-04-08T02:36:45.769Z,98.50
2018-04-08T02:39:14.336Z,98.50
2018-04-08T02:41:43.192Z,98.80
2018-04-08T02:44:12.318Z,98.80
2018-04-08T02:46:41.252Z,99.60
2018-04-08T02:49:09.366Z,99.60
2018-04-08T02:51:37.390Z,99.70
2018-04-08T02:54:05.212Z,99.90
2018-04-08T02:56:33.011Z,99.90
2018-04-08T02:59:01.634Z,99.90
2018-04-08T03:01:29.348Z,99.90
2018-04-08T03:03:57.878Z,99.90
2018-04-08T03:06:25.803Z,99.90
2018-04-08T03:08:54.362Z,99.90
2018-04-08T03:11:22.948Z,99.90
2018-04-08T03:13:50.847Z,99.90
2018-04-08T03:16:19.328Z,99.90
2018-04-08T03:18:47.934Z,99.90
2018-04-08T03:21:15.789Z,99.90
2018-04-08T03:23:43.572Z,99.90
2018-04-08T03:26:11.300Z,99.90
2018-04-08T03:28:39.924Z,99.90
2018-04-08T03:31:07.816Z,99.90
2018-04-08T03:33:35.632Z,99.90
2018-04-08T03:36:03.546Z,99.90
2018-04-08T03:38:31.421Z,99.90
2018-04-08T03:40:59.163Z,99.90
2018-04-08T03:43:26.964Z,99.90
2018-04-08T03:45:54.864Z,99.90
2018-04-08T03:48:22.693Z,99.90
2018-04-08T03:50:50.671Z,99.90
2018-04-08T03:53:19.267Z,99.90
2018-04-08T03:55:47.838Z,99.90
2018-04-08T03:58:16.625Z,99.90
2018-04-08T04:00:45.504Z,99.90
2018-04-08T04:03:13.316Z,99.90
2018-04-08T04:05:41.253Z,99.90
2018-04-08T04:08:09.895Z,99.90
2018-04-08T04:10:37.834Z,99.90
2018-04-08T04:13:05.686Z,99.90
2018-04-08T04:15:34.340Z,99.90
2018-04-08T04:18:03.039Z,99.90
2018-04-08T04:20:43.572Z,99.90
2018-04-08T04:23:23.205Z,99.90
2018-04-08T04:26:02.819Z,99.90
2018-04-08T04:28:31.399Z,99.90
2018-04-08T04:31:00.059Z,99.90
2018-04-08T04:33:27.907Z,99.90
2018-04-08T04:35:55.841Z,99.90
2018-04-08T04:38:26.273Z,99.90
2018-04-08T04:40:54.448Z,99.90
2018-04-08T04:43:22.268Z,99.90
2018-04-08T04:45:50.997Z,99.90
2018-04-08T04:48:18.802Z,99.90
2018-04-08T04:50:46.739Z,99.90
2018-04-08T04:53:14.558Z,99.90
2018-04-08T04:55:43.284Z,99.90
2018-04-08T04:58:11.142Z,99.90
2018-04-08T05:00:38.987Z,99.90
2018-04-08T05:03:07.693Z,99.90
2018-04-08T05:05:35.523Z,99.90
2018-04-08T05:08:03.370Z,99.90
2018-04-08T05:10:31.266Z,99.90
2018-04-08T05:12:59.802Z,99.90
2018-04-08T05:15:27.580Z,99.90
2018-04-08T05:17:55.445Z,99.90
2018-04-08T05:20:23.218Z,99.90
2018-04-08T05:22:51.121Z,99.90
2018-04-08T05:25:19.792Z,99.90
2018-04-08T05:27:47.610Z,99.90
2018-04-08T05:30:15.514Z,99.90
2018-04-08T05:32:43.283Z,99.90
2018-04-08T05:35:11.012Z,99.90
2018-04-08T05:37:38.831Z,99.90
2018-04-08T05:40:07.380Z,99.90
2018-04-08T05:42:35.247Z,99.90
2018-04-08T05:45:03.043Z,99.90
2018-04-08T05:47:31.034Z,99.90
2018-04-08T05:49:58.903Z,99.90
2018-04-08T05:52:26.730Z,99.90
2018-04-08T05:54:54.659Z,99.90
2018-04-08T05:57:22.574Z,99.90
2018-04-08T05:59:50.298Z,99.90
2018-04-08T06:02:18.287Z,99.90
2018-04-08T06:04:45.987Z,99.90
2018-04-08T06:07:14.591Z,99.90
2018-04-08T06:09:42.508Z,99.90
2018-04-08T06:12:10.311Z,99.90
2018-04-08T06:14:38.082Z,99.90
2018-04-08T06:17:05.923Z,99.90
2018-04-08T06:19:34.474Z,99.90
2018-04-08T06:22:02.255Z,99.90
2018-04-08T06:24:30.189Z,99.90
2018-04-08T06:26:57.969Z,99.90
2018-04-08T06:29:25.892Z,99.90
2018-04-08T06:31:53.807Z,99.90
2018-04-08T06:34:22.511Z,99.90
2018-04-08T06:36:50.331Z,99.90
2018-04-08T06:39:18.243Z,99.90
2018-04-08T06:41:46.174Z,99.90
2018-04-08T06:44:13.997Z,99.90
2018-04-08T06:46:42.697Z,99.90
2018-04-08T06:49:10.477Z,99.90
2018-04-08T06:51:38.281Z,99.90
2018-04-08T06:54:06.183Z,99.90
2018-04-08T06:56:34.783Z,99.90
2018-04-08T06:59:02.621Z,99.90
2018-04-08T07:01:30.459Z,99.90
2018-04-08T07:03:58.318Z,99.90
2018-04-08T07:06:26.080Z,94.80
2018-04-08T07:08:53.877Z,94.40
2018-04-08T07:11:21.680Z,93.60
2018-04-08T07:13:49.448Z,92.30
2018-04-08T07:16:17.293Z,92.40
2018-04-08T07:18:45.887Z,92.20
2018-04-08T07:21:14.464Z,96.10
2018-04-08T07:23:43.163Z,92.10
2018-04-08T07:26:11.008Z,92.60
2018-04-08T07:28:39.503Z,85.10
2018-04-08T07:31:08.119Z,81.10
2018-04-08T07:33:35.930Z,80.90
2018-04-08T07:36:04.695Z,84.70
2018-04-08T07:38:32.521Z,84.80
2018-04-08T07:41:00.362Z,84.00
2018-04-08T07:43:28.940Z,82.40
2018-04-08T07:45:56.868Z,82.50
2018-04-08T07:48:24.686Z,75.50
2018-04-08T07:50:53.243Z,74.70
2018-04-08T07:53:21.150Z,74.70
2018-04-08T07:55:49.012Z,77.40
2018-04-08T07:58:17.647Z,69.60
2018-04-08T08:00:45.433Z,69.30
2018-04-08T08:03:13.277Z,67.30
2018-04-08T08:05:41.043Z,64.40
2018-04-08T08:08:08.862Z,64.00
2018-04-08T08:10:36.637Z,61.00
2018-04-08T08:13:04.455Z,64.00
2018-04-08T08:15:33.824Z,61.90
2018-04-08T08:18:01.637Z,61.80
2018-04-08T08:20:29.506Z,61.10
2018-04-08T08:22:58.191Z,60.20
2018-04-08T08:25:26.797Z,61.10
2018-04-08T08:27:54.713Z,61.10
2018-04-08T08:30:22.633Z,60.00
2018-04-08T08:32:50.490Z,58.90
2018-04-08T08:35:18.379Z,58.80
2018-04-08T08:37:47.143Z,57.80
2018-04-08T08:40:15.675Z,57.30
2018-04-08T08:42:43.604Z,57.30
2018-04-08T08:45:12.382Z,55.70
2018-04-08T08:47:41.174Z,55.60
2018-04-08T08:50:09.810Z,55.20
2018-04-08T08:52:37.579Z,55.20
2018-04-08T08:55:05.423Z,54.80
2018-04-08T08:57:33.134Z,53.90
2018-04-08T09:00:00.895Z,54.20
2018-04-08T09:02:31.974Z,53.50
2018-04-08T09:04:59.808Z,53.30
2018-04-08T09:07:29.192Z,52.60
2018-04-08T09:09:57.110Z,52.60
2018-04-08T09:12:24.881Z,50.70
2018-04-08T09:14:52.852Z,51.60
2018-04-08T09:17:20.751Z,49.40
2018-04-08T09:19:49.870Z,48.40
2018-04-08T09:22:33.351Z,48.40
2018-04-08T09:25:17.733Z,48.80
2018-04-08T09:27:46.955Z,49.70
2018-04-08T09:30:14.863Z,48.10
2018-04-08T09:32:42.687Z,46.70
2018-04-08T09:35:11.405Z,48.50
2018-04-08T09:37:39.495Z,47.40
2018-04-08T09:40:07.251Z,47.40
2018-04-08T09:42:35.353Z,45.60
2018-04-08T09:45:04.364Z,46.40
2018-04-08T09:47:32.170Z,46.50
2018-04-08T09:50:00.730Z,44.60
2018-04-08T09:52:28.463Z,44.50
2018-04-08T09:54:56.402Z,44.60
2018-04-08T09:57:24.333Z,43.40
2018-04-08T09:59:52.351Z,44.20
2018-04-08T10:02:28.647Z,42.90
2018-04-08T10:04:56.478Z,44.40
2018-04-08T10:07:24.682Z,43.80
2018-04-08T10:09:52.584Z,42.30
2018-04-08T10:12:21.234Z,41.40
2018-04-08T10:14:48.982Z,41.30
2018-04-08T10:17:16.877Z,39.30
2018-04-08T10:19:44.787Z,40.50
2018-04-08T10:22:12.671Z,40.00
2018-04-08T10:24:40.532Z,39.80
2018-04-08T10:27:08.499Z,40.00
2018-04-08T10:29:36.391Z,39.40
2018-04-08T10:32:04.270Z,39.50
2018-04-08T10:34:32.127Z,36.80
2018-04-08T10:36:59.855Z,37.10
2018-04-08T10:39:28.523Z,34.70
2018-04-08T10:41:57.096Z,32.10
2018-04-08T10:44:24.850Z,32.00
2018-04-08T10:46:52.719Z,29.40
2018-04-08T10:49:20.554Z,29.10
2018-04-08T10:51:48.481Z,29.10
2018-04-08T10:54:17.165Z,29.50
2018-04-08T10:56:45.716Z,26.90
2018-04-08T10:59:13.526Z,26.90
2018-04-08T11:01:41.354Z,28.40
2018-04-08T11:04:09.254Z,27.50
2018-04-08T11:06:37.857Z,26.90
2018-04-08T11:09:05.884Z,26.90
2018-04-08T11:11:33.840Z,26.10
2018-04-08T11:14:01.647Z,25.20
2018-04-08T11:16:30.316Z,24.10
2018-04-08T11:18:58.930Z,24.50
2018-04-08T11:21:26.731Z,24.50
2018-04-08T11:23:54.671Z,23.90
2018-04-08T11:26:22.426Z,23.70
2018-04-08T11:28:50.268Z,24.30
2018-04-08T11:31:19.014Z,23.30
2018-04-08T11:33:46.875Z,23.20
2018-04-08T11:36:14.623Z,22.30
2018-04-08T11:38:42.745Z,22.70
2018-04-08T11:41:10.691Z,22.30
2018-04-08T11:43:38.575Z,22.30
2018-04-08T11:46:06.425Z,21.70
2018-04-08T11:48:34.208Z,22.50
2018-04-08T11:51:02.023Z,23.80
2018-04-08T11:53:29.924Z,21.90
2018-04-08T11:55:57.740Z,21.90
2018-04-08T11:58:25.733Z,22.30
2018-04-08T12:00:53.563Z,21.70
2018-04-08T12:03:22.224Z,21.10
2018-04-08T12:05:50.201Z,21.00
2018-04-08T12:08:18.791Z,20.40
2018-04-08T12:10:47.403Z,20.00
2018-04-08T12:13:15.353Z,20.00
2018-04-08T12:15:44.015Z,20.80
2018-04-08T12:18:11.916Z,20.80
2018-04-08T12:20:40.518Z,19.80
2018-04-08T12:23:08.443Z,19.80
2018-04-08T12:25:37.060Z,19.70
2018-04-08T12:28:04.911Z,19.70
2018-04-08T12:30:33.744Z,19.80
2018-04-08T12:33:01.579Z,19.80
2018-04-08T12:35:29.479Z,19.80
2018-04-08T12:37:57.315Z,19.70
2018-04-08T12:40:25.092Z,19.90
2018-04-08T12:42:52.915Z,19.60
2018-04-08T12:45:20.793Z,19.90
2018-04-08T12:47:49.370Z,19.90
2018-04-08T12:50:17.226Z,19.80
2018-04-08T12:52:45.083Z,20.30
2018-04-08T12:55:12.903Z,21.30
2018-04-08T12:57:40.632Z,21.00
2018-04-08T13:00:08.477Z,21.10
2018-04-08T13:02:36.365Z,20.90
2018-04-08T13:05:04.216Z,21.10
2018-04-08T13:07:32.091Z,22.70
2018-04-08T13:09:59.831Z,21.10
2018-04-08T13:12:27.611Z,21.10
2018-04-08T13:14:55.475Z,21.80
2018-04-08T13:17:23.314Z,22.10
2018-04-08T13:19:51.204Z,21.00
2018-04-08T13:22:19.146Z,21.30
2018-04-08T13:24:46.959Z,21.00
2018-04-08T13:27:14.785Z,20.80
2018-04-08T13:29:42.586Z,21.20
2018-04-08T13:32:10.416Z,20.90
2018-04-08T13:34:38.239Z,19.00
2018-04-08T13:37:06.823Z,19.10
2018-04-08T13:39:35.605Z,19.80
2018-04-08T13:42:04.180Z,20.50
2018-04-08T13:44:32.043Z,20.50
2018-04-08T13:46:59.824Z,20.70
2018-04-08T13:49:28.306Z,21.30
2018-04-08T13:51:56.923Z,21.80
2018-04-08T13:54:24.807Z,21.80
2018-04-08T13:56:52.528Z,20.90
2018-04-08T13:59:20.422Z,21.50
2018-04-08T14:01:48.388Z,22.20
2018-04-08T14:04:16.140Z,23.30
2018-04-08T14:06:43.978Z,22.80
2018-04-08T14:09:12.527Z,23.40
2018-04-08T14:11:41.162Z,22.70
2018-04-08T14:14:09.772Z,22.20
2018-04-08T14:16:37.532Z,22.10
2018-04-08T14:19:05.243Z,22.30
2018-04-08T14:21:33.026Z,23.20
2018-04-08T14:24:01.531Z,22.30
2018-04-08T14:26:29.577Z,22.20
2018-04-08T14:28:58.201Z,21.80
2018-04-08T14:31:25.975Z,21.80
2018-04-08T14:33:53.899Z,20.90
2018-04-08T14:36:22.604Z,22.10
2018-04-08T14:38:50.457Z,22.00
2018-04-08T14:41:20.357Z,21.40
2018-04-08T14:43:48.313Z,21.00
2018-04-08T14:46:17.734Z,21.50
2018-04-08T14:48:45.586Z,21.50
2018-04-08T14:51:14.592Z,20.70
2018-04-08T14:53:43.312Z,20.80
2018-04-08T14:56:12.115Z,20.70
2018-04-08T14:58:40.082Z,20.60
2018-04-08T15:01:07.887Z,21.60
2018-04-08T15:03:35.730Z,22.90
2018-04-08T15:06:03.576Z,21.10
2018-04-08T15:08:31.403Z,20.70
2018-04-08T15:10:59.286Z,21.90
2018-04-08T15:13:28.104Z,21.10
2018-04-08T15:15:56.002Z,21.10
2018-04-08T15:18:23.871Z,21.30
2018-04-08T15:20:51.789Z,21.80
2018-04-08T15:23:19.700Z,21.90
2018-04-08T15:25:47.581Z,21.80
2018-04-08T15:28:15.470Z,22.60
2018-04-08T15:30:44.111Z,23.70
2018-04-08T15:33:12.215Z,23.70
2018-04-08T15:35:40.070Z,22.40
2018-04-08T15:38:07.897Z,21.60
2018-04-08T15:40:35.770Z,21.70
2018-04-08T15:43:03.927Z,21.60
2018-04-08T15:45:31.711Z,21.30
2018-04-08T15:47:59.613Z,20.50
2018-04-08T15:50:27.495Z,22.10
2018-04-08T15:52:55.282Z,21.80
2018-04-08T15:55:24.049Z,22.50
2018-04-08T15:57:51.999Z,22.50
2018-04-08T16:00:20.069Z,22.70
2018-04-08T16:02:47.997Z,21.60
2018-04-08T16:05:16.087Z,21.50
2018-04-08T16:07:43.968Z,22.30
2018-04-08T16:10:11.968Z,20.90
2018-04-08T16:12:39.895Z,21.00
2018-04-08T16:15:07.734Z,21.60
2018-04-08T16:17:35.507Z,20.70
2018-04-08T16:20:03.352Z,21.50
2018-04-08T16:22:31.203Z,21.60
2018-04-08T16:24:59.800Z,22.50
2018-04-08T16:27:28.385Z,22.80
2018-04-08T16:29:57.057Z,22.80
2018-04-08T16:32:24.960Z,22.80
2018-04-08T16:34:52.864Z,22.50
2018-04-08T16:37:20.690Z,22.70
2018-04-08T16:39:48.534Z,22.30
2018-04-08T16:42:17.279Z,23.10
2018-04-08T16:44:45.769Z,23.60
2018-04-08T16:47:13.615Z,23.80
2018-04-08T16:49:41.435Z,23.80
2018-04-08T16:52:09.918Z,24.00
2018-04-08T16:54:38.939Z,23.60
2018-04-08T16:57:06.794Z,23.60
2018-04-08T16:59:34.687Z,24.20
2018-04-08T17:02:02.607Z,24.60
2018-04-08T17:04:31.302Z,25.10
2018-04-08T17:06:59.225Z,25.00
2018-04-08T17:09:27.136Z,26.20
2018-04-08T17:11:54.886Z,25.90
2018-04-08T17:14:23.447Z,26.30
2018-04-08T17:16:51.189Z,26.20
2018-04-08T17:19:18.977Z,27.10
2018-04-08T17:21:46.916Z,28.10
2018-04-08T17:24:14.803Z,28.40
2018-04-08T17:26:42.887Z,28.30
2018-04-08T17:29:10.747Z,28.30
2018-04-08T17:31:38.667Z,29.00
2018-04-08T17:34:06.673Z,29.50
2018-04-08T17:36:34.537Z,29.20
2018-04-08T17:39:02.322Z,29.70
2018-04-08T17:41:31.005Z,29.70
2018-04-08T17:43:59.033Z,30.00
2018-04-08T17:46:27.016Z,30.50
2018-04-08T17:48:54.926Z,30.50
2018-04-08T17:51:22.877Z,30.70
2018-04-08T17:53:50.847Z,31.40
2018-04-08T17:56:18.894Z,32.00
2018-04-08T17:58:46.906Z,31.60
2018-04-08T18:01:14.783Z,32.50
2018-04-08T18:03:43.687Z,32.80
2018-04-08T18:06:12.266Z,33.30
2018-04-08T18:08:40.902Z,33.30
2018-04-08T18:11:09.397Z,33.30
2018-04-08T18:13:37.272Z,32.70
2018-04-08T18:16:05.401Z,34.50
2018-04-08T18:18:33.359Z,36.60
2018-04-08T18:21:01.134Z,38.50
2018-04-08T18:23:30.729Z,36.90
2018-04-08T18:25:58.701Z,37.70
2018-04-08T18:28:26.539Z,35.80
2018-04-08T18:30:55.174Z,35.90
2018-04-08T18:33:23.116Z,35.90
2018-04-08T18:35:52.051Z,39.50
2018-04-08T18:38:20.016Z,39.50
2018-04-08T18:40:48.194Z,39.80
2018-04-08T18:43:16.286Z,40.60
2018-04-08T18:45:44.301Z,41.40
2018-04-08T18:48:12.249Z,42.10
2018-04-08T18:50:40.934Z,40.10
2018-04-08T18:53:09.503Z,40.50
2018-04-08T18:55:38.322Z,41.50
2018-04-08T18:58:06.200Z,41.50
2018-04-08T19:00:33.972Z,42.00
2018-04-08T19:03:02.170Z,41.70
2018-04-08T19:05:30.240Z,42.10
2018-04-08T19:07:58.106Z,42.60
2018-04-08T19:10:26.041Z,42.60
2018-04-08T19:12:53.940Z,43.60
2018-04-08T19:15:22.848Z,43.20
2018-04-08T19:17:56.406Z,42.90
2018-04-08T19:20:24.283Z,43.90
2018-04-08T19:22:52.276Z,45.60
2018-04-08T19:25:20.268Z,46.00
2018-04-08T19:27:48.225Z,47.30
2018-04-08T19:30:22.094Z,47.30
2018-04-08T19:32:50.014Z,48.00
2018-04-08T19:35:17.880Z,47.20
2018-04-08T19:37:45.694Z,47.70
2018-04-08T19:40:13.657Z,48.30
2018-04-08T19:42:41.599Z,48.90
2018-04-08T19:45:10.328Z,49.10
2018-04-08T19:47:38.138Z,49.00
2018-04-08T19:50:05.925Z,49.40
2018-04-08T19:52:34.594Z,49.20
2018-04-08T19:55:02.757Z,49.20
2018-04-08T19:57:30.552Z,48.80
2018-04-08T19:59:59.229Z,49.30
2018-04-08T20:02:27.838Z,50.80
2018-04-08T20:04:55.578Z,50.40
2018-04-08T20:07:24.218Z,49.40
2018-04-08T20:09:52.112Z,49.40
2018-04-08T20:12:19.885Z,47.60
2018-04-08T20:14:47.770Z,47.60
2018-04-08T20:17:16.352Z,51.00
2018-04-08T20:19:44.948Z,52.20
2018-04-08T20:22:13.614Z,51.50
2018-04-08T20:24:42.194Z,51.20
2018-04-08T20:27:10.173Z,51.20
2018-04-08T20:29:38.207Z,52.50
2018-04-08T20:32:05.957Z,53.00
2018-04-08T20:34:33.764Z,52.30
2018-04-08T20:37:01.568Z,53.00
2018-04-08T20:39:29.447Z,54.40
2018-04-08T20:41:57.287Z,53.80
2018-04-08T20:44:25.371Z,54.00
2018-04-08T20:46:53.243Z,55.20
2018-04-08T20:49:21.092Z,55.30
2018-04-08T20:51:49.026Z,55.40
2018-04-08T20:54:16.933Z,56.20
2018-04-08T20:56:44.733Z,56.60
2018-04-08T20:59:12.603Z,57.00
2018-04-08T21:01:40.438Z,55.60
2018-04-08T21:04:08.204Z,56.30
2018-04-08T21:06:36.223Z,56.30
2018-04-08T21:09:04.201Z,57.20
2018-04-08T21:11:32.843Z,57.00
2018-04-08T21:14:00.696Z,57.00
2018-04-08T21:16:28.518Z,57.00
2018-04-08T21:18:56.303Z,58.40
2018-04-08T21:21:24.944Z,63.30
2018-04-08T21:23:52.815Z,63.30
2018-04-08T21:26:20.696Z,65.00
2018-04-08T21:28:48.625Z,67.10
2018-04-08T21:31:16.482Z,66.40
2018-04-08T21:33:44.521Z,66.10
2018-04-08T21:36:12.418Z,63.60
2018-04-08T21:38:40.314Z,63.70
2018-04-08T21:41:08.173Z,65.30
2018-04-08T21:43:36.102Z,65.40
2018-04-08T21:46:04.656Z,63.30
2018-04-08T21:48:32.466Z,63.10
2018-04-08T21:51:00.366Z,64.30
2018-04-08T21:53:28.262Z,61.80
2018-04-08T21:55:56.139Z,60.10
2018-04-08T21:58:24.786Z,61.30
2018-04-08T22:00:52.626Z,61.20
2018-04-08T22:03:20.443Z,61.20
2018-04-08T22:05:48.413Z,62.00
2018-04-08T22:08:16.241Z,64.30
2018-04-08T22:10:44.093Z,65.80
2018-04-08T22:13:12.157Z,68.50
2018-04-08T22:15:40.024Z,74.20
2018-04-08T22:18:07.829Z,77.80
2018-04-08T22:20:35.736Z,77.60
2018-04-08T22:23:04.316Z,71.70
2018-04-08T22:25:32.100Z,71.60
2018-04-08T22:28:00.687Z,70.10
2018-04-08T22:30:28.650Z,70.00
2018-04-08T22:32:57.188Z,73.10
2018-04-08T22:35:25.102Z,73.20
2018-04-08T22:37:53.007Z,76.30
2018-04-08T22:40:20.753Z,77.20
2018-04-08T22:42:48.627Z,75.70
2018-04-08T22:45:16.560Z,75.20
2018-04-08T22:47:45.142Z,75.10
2018-04-08T22:50:13.812Z,74.90
2018-04-08T22:52:41.707Z,74.90
2018-04-08T22:55:09.507Z,77.60
2018-04-08T22:57:37.438Z,78.30
2018-04-08T23:00:06.100Z,78.30
2018-04-08T23:02:34.019Z,78.30
2018-04-08T23:05:01.945Z,80.30
2018-04-08T23:07:30.586Z,82.30
2018-04-08T23:09:58.493Z,82.20
2018-04-08T23:12:26.312Z,81.60
2018-04-08T23:14:54.314Z,81.70
2018-04-08T23:17:22.198Z,84.20
2018-04-08T23:19:50.929Z,84.40
2018-04-08T23:22:18.878Z,84.20
2018-04-08T23:24:46.629Z,82.00
2018-04-08T23:27:15.315Z,84.70
2018-04-08T23:29:43.946Z,86.10
2018-04-08T23:32:11.825Z,86.10
2018-04-08T23:34:39.766Z,89.20
2018-04-08T23:37:07.592Z,89.10
2018-04-08T23:39:36.342Z,90.20
2018-04-08T23:42:04.192Z,90.20
2018-04-08T23:44:32.060Z,90.40
2018-04-08T23:46:59.998Z,90.60
2018-04-08T23:49:27.949Z,88.70
2018-04-08T23:51:56.481Z,90.60
2018-04-08T23:54:24.544Z,90.60
2018-04-08T23:56:52.452Z,91.20
2018-04-08T23:59:20.389Z,91.90
